Time;durP1;ratioP1;P1;durP2;ratioP2;P2;SDS_P1;SDS_P2;PMS_P1;PMS_P2;Temp;Humidity;BMP_temperature;BMP_pressure;BME280_temperature;BME280_humidity;BME280_pressure;Samples;Min_cycle;Max_cycle;Signal;HPM_P1;HPM_P2
2021/12/24 00:02:00;;;;;;;;;;;;;;;-2.26;70.09;95580.47;5013763;28;1985;-46
2021/12/24 00:04:26;;;;;;;;;;;;;;;-2.22;69.46;95574.19;5014127;28;986;-46
2021/12/24 00:06:53;;;;;;;;;;;;;;;-2.50;69.49;95568.53;5013901;28;1046;-47
2021/12/24 00:09:24;;;;;;;;;;;;;;;-2.64;70.70;95569.19;5013646;28;1210;-47
2021/12/24 00:11:52;;;;;;;;;;;;;;;-2.64;70.82;95575.25;5023391;28;1194;-47
2021/12/24 00:14:18;;;;;;;;;;;;;;;-2.60;70.34;95565.50;5033638;28;994;-47
2021/12/24 00:16:52;;;;;;;;;;;;;;;-2.59;70.35;95565.44;5033279;28;986;-47
2021/12/24 00:19:39;;;;;;;;;;;;;;;-2.65;69.84;95570.13;5033425;28;1081;-47
2021/12/24 00:35:54;;;;;;;;;;;;;;;-2.86;70.13;95562.31;4991735;28;1038;-46
2021/12/24 00:38:20;;;;;;;;;;;;;;;-3.28;70.14;95555.50;5016450;28;1245;-47
2021/12/24 00:40:47;;;;;;;;;;;;;;;-3.45;70.72;95568.44;5032828;28;1992;-46
2021/12/24 00:43:14;;;;;;;;;;;;;;;-3.46;71.08;95557.13;5033192;28;1054;-47
2021/12/24 00:45:42;;;;;;;;;;;;;;;-3.41;70.83;95555.16;5033144;28;1957;-47
2021/12/24 00:48:13;;;;;;;;;;;;;;;-3.30;69.86;95553.84;5032895;28;1077;-47
2021/12/24 00:56:02;;;;;;;;;;;;;;;-3.59;70.19;95559.41;5033896;28;978;-46
2021/12/24 00:58:28;;;;;;;;;;;;;;;-3.55;70.50;95554.91;5037020;28;1045;-47
2021/12/24 01:00:54;;;;;;;;;;;;;;;-3.52;70.33;95546.94;5036899;28;1988;-47
2021/12/24 01:03:20;;;;;;;;;;;;;;;-3.44;69.61;95554.44;5036857;28;1043;-47
2021/12/24 01:05:46;;;;;;;;;;;;;;;-3.50;69.75;95557.34;5036787;28;1101;-47
2021/12/24 01:08:14;;;;;;;;;;;;;;;-3.49;70.36;95541.59;5036912;28;1048;-47
2021/12/24 01:10:51;;;;;;;;;;;;;;;-3.46;70.64;95538.81;5036732;28;2008;-47
2021/12/24 01:13:17;;;;;;;;;;;;;;;-3.80;70.64;95532.44;5017295;28;990;-47
2021/12/24 01:16:01;;;;;;;;;;;;;;;-3.95;70.37;95527.84;5017036;28;990;-47
2021/12/24 01:18:48;;;;;;;;;;;;;;;-3.88;71.05;95537.13;5016712;28;1053;-47
2021/12/24 01:24:03;;;;;;;;;;;;;;;-3.63;70.13;95533.47;5016696;28;1002;-46
2021/12/24 01:44:58;;;;;;;;;;;;;;;-3.88;71.39;95508.41;5016495;28;1005;-46
2021/12/24 01:47:24;;;;;;;;;;;;;;;-3.91;70.85;95505.91;5016259;28;1045;-46
2021/12/24 01:49:50;;;;;;;;;;;;;;;-3.95;70.97;95506.97;5016194;28;1041;-47
2021/12/24 01:52:16;;;;;;;;;;;;;;;-3.95;71.11;95515.63;5016546;28;986;-47
2021/12/24 01:54:43;;;;;;;;;;;;;;;-4.16;70.87;95506.94;5015993;28;1070;-46
2021/12/24 01:57:11;;;;;;;;;;;;;;;-4.30;71.01;95511.91;5016459;28;1049;-46
2021/12/24 01:59:37;;;;;;;;;;;;;;;-4.20;71.78;95514.97;5016261;28;1044;-46
2021/12/24 02:02:03;;;;;;;;;;;;;;;-4.12;71.40;95505.91;5015991;28;1910;-47
2021/12/24 02:04:29;;;;;;;;;;;;;;;-4.21;70.33;95503.69;5016075;28;980;-47
2021/12/24 02:06:55;;;;;;;;;;;;;;;-4.24;71.18;95495.97;5015934;28;1093;-47
2021/12/24 02:09:21;;;;;;;;;;;;;;;-4.45;70.27;95491.63;5015076;28;978;-47
2021/12/24 02:11:47;;;;;;;;;;;;;;;-4.41;71.27;95491.44;5024971;28;1984;-47
2021/12/24 02:14:16;;;;;;;;;;;;;;;-4.47;71.42;95488.25;5035820;28;1038;-46
2021/12/24 02:29:49;;;;;;;;;;;;;;;-4.55;70.91;95478.13;5035403;28;1065;-47
2021/12/24 02:32:15;;;;;;;;;;;;;;;-4.50;71.15;95473.53;5035611;28;1061;-47
2021/12/24 02:34:41;;;;;;;;;;;;;;;-4.68;70.97;95469.91;5035098;28;1272;-47
2021/12/24 02:37:07;;;;;;;;;;;;;;;-4.58;71.63;95473.84;5035415;28;1029;-46
2021/12/24 02:39:33;;;;;;;;;;;;;;;-4.41;72.05;95469.72;5035195;28;1046;-46
2021/12/24 02:42:11;;;;;;;;;;;;;;;-4.38;71.69;95464.34;5034938;28;1993;-46
2021/12/24 02:44:37;;;;;;;;;;;;;;;-4.33;71.04;95468.47;5034898;28;1290;-47
2021/12/24 02:47:15;;;;;;;;;;;;;;;-4.43;70.80;95474.16;5035149;28;1029;-47
2021/12/24 02:54:54;;;;;;;;;;;;;;;-4.75;71.71;95474.53;5034904;28;1056;-47
2021/12/24 02:57:26;;;;;;;;;;;;;;;-4.75;71.38;95456.25;5035052;28;1065;-47
2021/12/24 03:00:00;;;;;;;;;;;;;;;-4.66;72.20;95462.88;5034916;28;1050;-47
2021/12/24 03:02:27;;;;;;;;;;;;;;;-4.61;71.77;95439.19;5035007;28;1906;-46
2021/12/24 03:04:53;;;;;;;;;;;;;;;-4.64;72.17;95455.84;5034358;28;1043;-47
2021/12/24 03:07:19;;;;;;;;;;;;;;;-4.48;72.00;95442.16;5034847;28;979;-47
2021/12/24 03:09:45;;;;;;;;;;;;;;;-4.65;71.71;95448.91;5034586;28;1056;-47
2021/12/24 03:12:11;;;;;;;;;;;;;;;-4.75;71.94;95427.56;5047216;28;1226;-47
2021/12/24 03:14:37;;;;;;;;;;;;;;;-4.75;71.96;95451.03;5054376;28;1012;-47
2021/12/24 03:17:08;;;;;;;;;;;;;;;-4.81;73.01;95426.97;5054371;28;987;-47
2021/12/24 03:19:34;;;;;;;;;;;;;;;-4.75;72.04;95447.59;5054396;28;1013;-46
2021/12/24 03:22:13;;;;;;;;;;;;;;;-4.71;73.52;95429.13;5054150;28;1898;-46
2021/12/24 03:24:39;;;;;;;;;;;;;;;-4.53;73.09;95437.16;5054271;28;982;-47
2021/12/24 03:27:06;;;;;;;;;;;;;;;-4.44;72.79;95435.91;5054108;28;1014;-47
2021/12/24 03:29:33;;;;;;;;;;;;;;;-4.39;72.77;95442.63;5054003;28;1026;-47
2021/12/24 03:31:59;;;;;;;;;;;;;;;-4.46;71.58;95433.34;5054010;28;1295;-47
2021/12/24 03:34:25;;;;;;;;;;;;;;;-4.50;71.75;95437.00;5053650;28;1318;-47
2021/12/24 03:36:51;;;;;;;;;;;;;;;-4.61;72.33;95434.84;5054271;28;970;-47
2021/12/24 03:39:17;;;;;;;;;;;;;;;-4.60;72.05;95420.88;5053842;28;1062;-47
2021/12/24 03:41:44;;;;;;;;;;;;;;;-4.68;72.17;95428.19;5054083;28;1993;-47
2021/12/24 03:44:12;;;;;;;;;;;;;;;-4.53;72.17;95430.16;5053764;28;1021;-46
2021/12/24 03:47:04;;;;;;;;;;;;;;;-4.42;71.95;95413.19;5053850;28;1022;-47
2021/12/24 03:49:41;;;;;;;;;;;;;;;-4.46;71.26;95409.84;5053816;28;979;-47
2021/12/24 03:54:58;;;;;;;;;;;;;;;-4.54;72.14;95411.94;5053766;28;982;-47
2021/12/24 03:57:25;;;;;;;;;;;;;;;-4.72;71.99;95403.13;5053604;28;989;-47
2021/12/24 03:59:52;;;;;;;;;;;;;;;-4.85;71.51;95397.56;5053610;28;1065;-47
2021/12/24 04:02:18;;;;;;;;;;;;;;;-4.70;72.20;95393.47;5054059;28;1910;-47
2021/12/24 04:04:44;;;;;;;;;;;;;;;-4.61;71.49;95395.72;5053311;28;1100;-47
2021/12/24 04:07:10;;;;;;;;;;;;;;;-4.53;71.99;95380.56;5053730;28;1038;-47
2021/12/24 04:09:38;;;;;;;;;;;;;;;-4.50;71.32;95390.03;5053354;28;1052;-46
2021/12/24 04:12:05;;;;;;;;;;;;;;;-4.54;70.64;95384.06;5030361;28;1158;-46
2021/12/24 04:14:31;;;;;;;;;;;;;;;-4.63;70.90;95370.56;5013922;28;1081;-47
2021/12/24 04:16:57;;;;;;;;;;;;;;;-4.80;71.49;95385.19;5013988;28;1058;-47
2021/12/24 04:24:55;;;;;;;;;;;;;;;-4.68;71.28;95391.66;5013774;28;1037;-47
2021/12/24 04:27:30;;;;;;;;;;;;;;;-4.75;72.35;95391.03;5013921;28;1064;-47
2021/12/24 04:30:09;;;;;;;;;;;;;;;-4.92;71.68;95389.13;5013525;28;1012;-47
2021/12/24 04:51:39;;;;;;;;;;;;;;;-4.75;71.84;95387.59;5013089;28;1181;-47
2021/12/24 05:02:16;;;;;;;;;;;;;;;-5.27;73.59;95418.34;5013207;28;1910;-47
2021/12/24 05:04:52;;;;;;;;;;;;;;;-5.16;73.04;95413.56;5013572;28;987;-47
2021/12/24 05:10:02;;;;;;;;;;;;;;;-5.08;71.92;95426.28;5013406;28;1016;-46
2021/12/24 05:12:31;;;;;;;;;;;;;;;-5.02;71.53;95429.53;5042266;28;1225;-47
2021/12/24 05:15:00;;;;;;;;;;;;;;;-4.99;71.37;95431.16;5053003;28;967;-47
2021/12/24 05:17:45;;;;;;;;;;;;;;;-5.01;73.45;95430.38;5052823;28;1000;-47
2021/12/24 05:22:55;;;;;;;;;;;;;;;-5.30;73.90;95417.56;5052453;28;1983;-47
2021/12/24 05:25:21;;;;;;;;;;;;;;;-5.01;73.40;95419.94;5052953;28;978;-47
2021/12/24 05:27:47;;;;;;;;;;;;;;;-4.87;74.08;95428.06;5052718;28;1087;-47
2021/12/24 05:30:13;;;;;;;;;;;;;;;-4.87;73.98;95430.69;5052564;28;1105;-46
2021/12/24 05:32:39;;;;;;;;;;;;;;;-5.03;73.52;95440.00;5052850;28;983;-46
2021/12/24 05:35:05;;;;;;;;;;;;;;;-5.06;74.37;95433.16;5052419;28;1089;-47
2021/12/24 05:37:31;;;;;;;;;;;;;;;-4.96;74.15;95431.88;5052347;28;1065;-47
2021/12/24 05:39:57;;;;;;;;;;;;;;;-4.93;73.94;95428.31;5052726;28;1025;-46
2021/12/24 05:42:26;;;;;;;;;;;;;;;-4.91;73.98;95431.72;5052456;28;1998;-45
2021/12/24 05:44:53;;;;;;;;;;;;;;;-4.78;73.58;95426.84;5056130;28;979;-45
2021/12/24 05:47:19;;;;;;;;;;;;;;;-4.67;73.61;95413.38;5056034;28;1029;-45
2021/12/24 05:49:45;;;;;;;;;;;;;;;-4.70;73.83;95424.78;5038405;28;1019;-45
2021/12/24 05:52:11;;;;;;;;;;;;;;;-4.88;74.07;95433.34;5055747;28;1030;-45
2021/12/24 05:54:37;;;;;;;;;;;;;;;-4.78;73.51;95417.28;5056149;28;1017;-45
2021/12/24 05:57:03;;;;;;;;;;;;;;;-4.77;73.35;95418.09;5055727;28;1235;-46
2021/12/24 05:59:29;;;;;;;;;;;;;;;-4.79;73.16;95410.34;5056145;28;1073;-46
2021/12/24 06:01:55;;;;;;;;;;;;;;;-4.87;73.36;95401.16;5055509;28;1906;-46
2021/12/24 06:04:21;;;;;;;;;;;;;;;-4.92;73.97;95409.97;5055812;28;1025;-46
2021/12/24 06:06:47;;;;;;;;;;;;;;;-4.76;73.66;95397.19;5055667;28;1065;-46
2021/12/24 06:09:13;;;;;;;;;;;;;;;-4.65;73.84;95396.72;5055620;28;1057;-46
2021/12/24 06:11:39;;;;;;;;;;;;;;;-4.79;73.64;95399.06;5039600;28;1166;-46
2021/12/24 06:14:11;;;;;;;;;;;;;;;-4.71;73.29;95399.59;5016015;28;1069;-45
2021/12/24 06:16:45;;;;;;;;;;;;;;;-4.64;74.00;95388.00;5015762;28;1120;-46
2021/12/24 06:19:12;;;;;;;;;;;;;;;-4.53;73.14;95395.38;5016195;28;1050;-45
2021/12/24 06:21:38;;;;;;;;;;;;;;;-4.61;72.10;95398.31;5015656;28;1997;-46
2021/12/24 06:24:04;;;;;;;;;;;;;;;-4.46;72.64;95391.56;5015636;28;1097;-46
2021/12/24 06:26:30;;;;;;;;;;;;;;;-4.38;73.08;95391.25;5015618;28;1138;-46
2021/12/24 06:28:56;;;;;;;;;;;;;;;-4.34;72.07;95388.47;5015820;28;1013;-46
2021/12/24 06:31:22;;;;;;;;;;;;;;;-4.57;71.94;95399.88;5015913;28;978;-46
2021/12/24 06:33:48;;;;;;;;;;;;;;;-4.75;73.05;95414.50;5015328;28;1122;-46
2021/12/24 06:36:14;;;;;;;;;;;;;;;-4.71;73.56;95410.03;5015346;28;1995;-46
2021/12/24 06:38:40;;;;;;;;;;;;;;;-4.57;73.02;95412.94;5015474;28;1065;-46
2021/12/24 06:41:06;;;;;;;;;;;;;;;-4.37;72.37;95419.06;5015598;28;1914;-45
2021/12/24 06:43:33;;;;;;;;;;;;;;;-4.27;71.62;95430.81;5015477;28;986;-46
2021/12/24 06:45:59;;;;;;;;;;;;;;;-4.13;71.86;95431.09;5015267;28;1299;-45
2021/12/24 06:48:25;;;;;;;;;;;;;;;-2.28;67.88;95442.66;5015160;28;990;-45
2021/12/24 06:50:52;;;;;;;;;;;;;;;-0.22;59.89;95421.09;5015055;28;1120;-46
2021/12/24 06:53:18;;;;;;;;;;;;;;;2.12;53.73;95438.13;5015110;28;1029;-46
2021/12/24 06:55:44;;;;;;;;;;;;;;;4.39;48.54;95431.66;5014727;28;1021;-45
2021/12/24 06:58:10;;;;;;;;;;;;;;;3.78;48.73;95430.97;5014876;28;1212;-47
2021/12/24 07:00:36;;;;;;;;;;;;;;;3.84;48.48;95430.50;5015312;28;1037;-47
2021/12/24 07:03:02;;;;;;;;;;;;;;;4.64;47.64;95435.91;5014774;28;1938;-46
2021/12/24 07:05:28;;;;;;;;;;;;;;;5.25;45.74;95427.66;5014823;28;1053;-46
2021/12/24 07:07:54;;;;;;;;;;;;;;;3.48;48.74;95425.13;5014651;28;1050;-53
2021/12/24 07:10:20;;;;;;;;;;;;;;;3.41;49.96;95423.03;5015122;28;1018;-46
2021/12/24 07:12:46;;;;;;;;;;;;;;;2.25;52.84;95417.03;5048829;28;1171;-46
2021/12/24 07:15:12;;;;;;;;;;;;;;;1.54;54.99;95419.09;5054730;28;1171;-46
2021/12/24 07:17:38;;;;;;;;;;;;;;;0.59;58.61;95410.16;5054454;28;1041;-46
2021/12/24 07:20:05;;;;;;;;;;;;;;;0.07;60.91;95398.34;5054059;28;1070;-46
2021/12/24 07:22:31;;;;;;;;;;;;;;;-0.12;62.03;95403.00;5054425;28;1905;-45
2021/12/24 07:24:57;;;;;;;;;;;;;;;-0.70;63.65;95408.06;5054174;28;1042;-45
2021/12/24 07:27:23;;;;;;;;;;;;;;;-0.90;64.98;95403.91;5054305;28;954;-45
2021/12/24 07:29:49;;;;;;;;;;;;;;;-0.95;65.79;95400.69;5053986;28;1038;-46
2021/12/24 07:32:15;;;;;;;;;;;;;;;-0.90;65.58;95403.91;5054407;28;1054;-46
2021/12/24 07:34:41;;;;;;;;;;;;;;;-0.52;65.08;95418.44;5053644;28;1311;-46
2021/12/24 07:37:07;;;;;;;;;;;;;;;-0.49;64.77;95418.28;5054269;28;1010;-46
2021/12/24 07:39:33;;;;;;;;;;;;;;;-0.46;64.44;95424.19;5054079;28;1034;-45
2021/12/24 07:41:59;;;;;;;;;;;;;;;-0.61;64.64;95436.44;5053928;28;1910;-46
2021/12/24 07:44:26;;;;;;;;;;;;;;;-0.35;64.35;95430.63;5053923;28;1057;-47
2021/12/24 07:46:56;;;;;;;;;;;;;;;-0.17;64.00;95420.81;5053694;28;1176;-46
2021/12/24 07:54:35;;;;;;;;;;;;;;;-0.23;64.91;95435.16;5053709;28;965;-48
2021/12/24 07:57:01;;;;;;;;;;;;;;;0.02;64.51;95439.84;5053754;28;1137;-47
2021/12/24 07:59:27;;;;;;;;;;;;;;;0.11;64.76;95439.28;5053804;28;978;-47
2021/12/24 08:01:54;;;;;;;;;;;;;;;0.25;64.20;95435.00;5053701;28;1898;-47
2021/12/24 08:04:20;;;;;;;;;;;;;;;0.28;64.51;95442.72;5053286;28;1030;-47
2021/12/24 08:06:47;;;;;;;;;;;;;;;0.13;64.53;95431.31;5052923;28;993;-47
2021/12/24 08:09:13;;;;;;;;;;;;;;;-0.12;66.06;95429.28;5053454;28;1052;-46
2021/12/24 08:11:39;;;;;;;;;;;;;;;-0.40;66.02;95431.75;5037470;28;1155;-46
2021/12/24 08:14:06;;;;;;;;;;;;;;;-0.34;66.02;95417.41;5013838;28;1001;-46
2021/12/24 08:16:33;;;;;;;;;;;;;;;-0.32;65.87;95420.78;5014069;28;1097;-47
2021/12/24 08:18:59;;;;;;;;;;;;;;;-0.52;66.20;95411.41;5013598;28;1029;-46
2021/12/24 08:21:26;;;;;;;;;;;;;;;-0.55;66.68;95408.09;5013818;28;1906;-46
2021/12/24 08:23:52;;;;;;;;;;;;;;;-0.45;66.32;95401.41;5013456;28;1036;-46
2021/12/24 08:26:21;;;;;;;;;;;;;;;-0.34;66.00;95406.03;5013668;28;1082;-47
2021/12/24 08:28:48;;;;;;;;;;;;;;;-0.27;66.18;95402.94;5012210;28;951;-46
2021/12/24 08:31:14;;;;;;;;;;;;;;;-0.17;65.32;95392.78;5013481;28;1050;-46
2021/12/24 08:37:02;;;;;;;;;;;;;;;0.06;64.71;95365.13;3517604;28;2291;-47
2021/12/24 08:39:28;;;;;;;;;;;;;;;0.19;64.59;95379.22;5013252;28;1370;-45
2021/12/24 08:41:54;;;;;;;;;;;;;;;0.30;63.13;95369.81;5013268;28;1991;-46
2021/12/24 08:44:22;;;;;;;;;;;;;;;0.46;61.98;95377.63;5013570;28;1023;-47
2021/12/24 09:15:40;;;;;;;;;;;;;;;2.59;60.23;95346.94;5131350;27;1242;-43
2021/12/24 09:18:06;;;;;;;;;;;;;;;3.27;58.41;95337.69;5131813;28;961;-43
2021/12/24 09:20:37;;;;;;;;;;;;;;;4.68;54.45;95334.06;5131725;28;1047;-44
2021/12/24 09:23:04;;;;;;;;;;;;;;;6.69;48.91;95328.25;5131656;27;1849;-44
2021/12/24 09:25:31;;;;;;;;;;;;;;;8.92;43.00;95319.50;5131462;27;1003;-45
2021/12/24 09:27:57;;;;;;;;;;;;;;;12.10;36.69;95314.88;5131512;27;1058;-46
2021/12/24 09:30:23;;;;;;;;;;;;;;;13.89;33.07;95306.53;5131610;27;994;-47
2021/12/24 09:32:50;;;;;;;;;;;;;;;14.68;31.73;95326.97;5131756;27;968;-46
2021/12/24 09:35:16;;;;;;;;;;;;;;;15.54;29.97;95312.06;5131381;27;1913;-47
2021/12/24 09:37:42;;;;;;;;;;;;;;;15.89;29.41;95309.59;5131626;28;980;-46
2021/12/24 09:40:10;;;;;;;;;;;;;;;16.42;28.58;95305.78;5131027;28;916;-47
2021/12/24 09:42:36;;;;;;;;;;;;;;;15.61;29.24;95287.88;5131315;27;1031;-46
2021/12/24 09:45:04;;;;;;;;;;;;;;;14.64;29.99;95294.22;5131263;27;1988;-47
2021/12/24 09:47:30;;;;;;;;;;;;;;;15.66;29.02;95282.78;5131420;27;960;-46
2021/12/24 09:49:56;;;;;;;;;;;;;;;17.32;26.67;95299.63;5131015;27;1055;-46
2021/12/24 09:52:22;;;;;;;;;;;;;;;18.81;24.56;95289.06;5131689;27;1032;-48
2021/12/24 09:54:48;;;;;;;;;;;;;;;19.42;23.72;95296.03;5130759;28;1268;-47
2021/12/24 09:57:15;;;;;;;;;;;;;;;19.97;23.28;95279.38;5130943;27;1027;-47
2021/12/24 09:59:42;;;;;;;;;;;;;;;20.48;22.26;95276.53;5130975;27;1003;-47
2021/12/24 10:02:14;;;;;;;;;;;;;;;20.59;22.26;95268.75;5130846;27;1036;-47
2021/12/24 10:04:43;;;;;;;;;;;;;;;20.84;21.78;95247.06;5130918;27;984;-46
2021/12/24 10:07:10;;;;;;;;;;;;;;;20.44;21.82;95244.63;5131225;27;1018;-47
2021/12/24 10:09:37;;;;;;;;;;;;;;;19.78;23.10;95243.97;5131049;27;1003;-46
2021/12/24 10:12:08;;;;;;;;;;;;;;;17.66;25.22;95219.53;5130339;27;1170;-46
2021/12/24 10:14:36;;;;;;;;;;;;;;;14.01;29.54;95223.63;5130530;27;1918;-46
2021/12/24 10:17:03;;;;;;;;;;;;;;;11.53;34.29;95222.72;5130410;27;1046;-45
2021/12/24 10:19:29;;;;;;;;;;;;;;;10.33;37.08;95227.25;5130523;27;1054;-45
2021/12/24 10:21:57;;;;;;;;;;;;;;;10.32;37.96;95217.59;5130514;27;1052;-45
2021/12/24 10:24:26;;;;;;;;;;;;;;;12.11;34.24;95223.59;5130715;27;956;-45
2021/12/24 10:26:53;;;;;;;;;;;;;;;15.49;29.37;95208.56;5117387;27;1063;-46
2021/12/24 10:29:29;;;;;;;;;;;;;;;18.28;25.19;95200.50;5116645;28;1059;-46
2021/12/24 10:31:56;;;;;;;;;;;;;;;20.02;23.06;95196.25;5116453;28;1909;-46
2021/12/24 10:34:26;;;;;;;;;;;;;;;20.98;21.95;95201.53;5116458;28;1910;-47
2021/12/24 10:36:59;;;;;;;;;;;;;;;21.64;21.46;95199.97;5116271;28;1294;-46
2021/12/24 10:39:30;;;;;;;;;;;;;;;22.60;20.18;95203.63;5116559;28;1087;-47
2021/12/24 10:41:57;;;;;;;;;;;;;;;22.68;20.00;95216.06;5116566;28;968;-46
2021/12/24 10:44:25;;;;;;;;;;;;;;;22.48;20.03;95207.38;5116550;28;981;-46
2021/12/24 10:46:57;;;;;;;;;;;;;;;21.55;20.87;95206.78;5116034;28;932;-45
2021/12/24 10:49:38;;;;;;;;;;;;;;;21.79;20.98;95196.84;5116265;28;1229;-46
2021/12/24 10:52:14;;;;;;;;;;;;;;;21.18;20.90;95199.44;5116387;28;960;-47
2021/12/24 10:54:54;;;;;;;;;;;;;;;21.17;21.20;95207.81;5116532;28;1913;-46
2021/12/24 10:57:25;;;;;;;;;;;;;;;20.89;21.66;95192.88;5116242;28;961;-47
2021/12/24 10:59:54;;;;;;;;;;;;;;;20.41;21.98;95194.31;5116490;28;976;-47
2021/12/24 11:02:23;;;;;;;;;;;;;;;18.83;23.85;95182.16;5115860;28;1083;-46
2021/12/24 11:04:51;;;;;;;;;;;;;;;15.74;27.97;95179.41;5116140;28;1055;-46
2021/12/24 11:07:29;;;;;;;;;;;;;;;13.23;31.33;95183.31;5115968;28;1039;-46
2021/12/24 11:10:13;;;;;;;;;;;;;;;11.94;33.57;95178.22;5115827;28;1863;-45
2021/12/24 11:12:41;;;;;;;;;;;;;;;10.92;35.09;95175.72;5115833;28;1157;-45
2021/12/24 11:15:37;;;;;;;;;;;;;;;9.79;37.12;95167.78;5115586;28;1910;-46
2021/12/24 11:18:06;;;;;;;;;;;;;;;9.69;37.99;95157.19;5098461;28;1217;-45
2021/12/24 11:20:34;;;;;;;;;;;;;;;9.69;38.11;95151.84;5115649;28;971;-46
2021/12/24 11:23:09;;;;;;;;;;;;;;;9.54;38.81;95156.06;5115735;28;1058;-45
2021/12/24 11:25:39;;;;;;;;;;;;;;;9.30;39.19;95146.03;5115671;28;1873;-45
2021/12/24 11:28:06;;;;;;;;;;;;;;;9.25;40.09;95153.66;5115566;28;1059;-45
2021/12/24 11:30:33;;;;;;;;;;;;;;;9.35;39.79;95152.59;5115823;28;992;-45
2021/12/24 11:33:00;;;;;;;;;;;;;;;9.36;40.53;95142.75;5115115;28;1899;-45
2021/12/24 11:35:27;;;;;;;;;;;;;;;8.91;40.00;95143.66;5115417;28;1997;-46
2021/12/24 11:37:53;;;;;;;;;;;;;;;8.82;40.14;95139.22;5114231;28;1208;-45
2021/12/24 11:40:21;;;;;;;;;;;;;;;8.76;40.48;95130.84;5115566;28;1014;-45
2021/12/24 11:42:51;;;;;;;;;;;;;;;8.57;41.41;95131.81;5115121;28;977;-45
2021/12/24 11:45:19;;;;;;;;;;;;;;;8.70;41.54;95134.09;5115359;28;1048;-46
2021/12/24 11:47:45;;;;;;;;;;;;;;;8.45;42.19;95140.16;5115133;28;1051;-46
2021/12/24 11:50:12;;;;;;;;;;;;;;;8.38;42.27;95127.41;5115418;28;1362;-45
2021/12/24 11:52:40;;;;;;;;;;;;;;;8.04;43.62;95124.44;5115190;28;1183;-45
2021/12/24 11:55:06;;;;;;;;;;;;;;;8.23;43.46;95120.84;5115063;28;2000;-45
2021/12/24 11:57:32;;;;;;;;;;;;;;;8.30;43.94;95129.94;5114838;28;1951;-46
2021/12/24 12:00:08;;;;;;;;;;;;;;;8.33;44.03;95115.50;5115167;28;1059;-44
2021/12/24 12:02:44;;;;;;;;;;;;;;;7.95;44.23;95109.38;5115022;28;995;-46
2021/12/24 12:05:17;;;;;;;;;;;;;;;7.84;44.57;95107.72;5115132;28;969;-44
2021/12/24 12:07:43;;;;;;;;;;;;;;;8.05;44.10;95102.16;5114725;28;1083;-45
2021/12/24 12:10:10;;;;;;;;;;;;;;;8.08;44.31;95106.34;5114772;28;1031;-45
2021/12/24 12:12:38;;;;;;;;;;;;;;;8.05;44.54;95091.53;5114411;28;1201;-46
2021/12/24 12:15:22;;;;;;;;;;;;;;;8.15;44.52;95091.47;5114388;28;1910;-45
2021/12/24 12:17:50;;;;;;;;;;;;;;;8.24;45.32;95093.25;5114352;28;1859;-45
2021/12/24 12:20:56;;;;;;;;;;;;;;;8.29;46.31;95077.66;5114731;28;1039;-46
2021/12/24 12:23:44;;;;;;;;;;;;;;;8.23;46.34;95086.22;5083893;28;1277;-46
2021/12/24 12:26:32;;;;;;;;;;;;;;;8.21;45.46;95074.88;5114762;28;1002;-46
2021/12/24 12:29:16;;;;;;;;;;;;;;;8.33;44.79;95076.38;5114258;28;1024;-45
2021/12/24 12:31:43;;;;;;;;;;;;;;;8.27;46.87;95073.47;5114184;27;1285;-47
2021/12/24 12:34:27;;;;;;;;;;;;;;;8.23;45.29;95061.44;5114500;28;1905;-45
2021/12/24 12:36:53;;;;;;;;;;;;;;;8.37;44.52;95064.44;5114568;28;976;-46
2021/12/24 12:39:26;;;;;;;;;;;;;;;8.36;44.81;95057.41;5114372;28;1011;-45
2021/12/24 12:41:52;;;;;;;;;;;;;;;8.34;44.95;95063.88;5114192;28;1038;-46
2021/12/24 12:44:19;;;;;;;;;;;;;;;8.28;44.96;95048.50;5113959;28;1451;-44
2021/12/24 12:46:47;;;;;;;;;;;;;;;8.24;44.96;95058.63;5114275;28;1019;-45
2021/12/24 12:49:16;;;;;;;;;;;;;;;8.23;44.49;95045.44;5113877;28;1062;-46
2021/12/24 12:51:48;;;;;;;;;;;;;;;8.30;45.27;95051.88;5114201;28;1055;-45
2021/12/24 12:54:32;;;;;;;;;;;;;;;8.36;45.31;95049.41;5113855;28;1897;-46
2021/12/24 12:57:08;;;;;;;;;;;;;;;8.37;45.31;95053.78;5114229;28;1054;-45
2021/12/24 12:59:34;;;;;;;;;;;;;;;8.42;44.86;95050.69;5114091;28;1039;-46
2021/12/24 13:02:01;;;;;;;;;;;;;;;8.44;45.10;95045.22;5114071;28;951;-46
2021/12/24 13:04:27;;;;;;;;;;;;;;;8.39;44.99;95043.81;5113754;27;1040;-45
2021/12/24 13:06:55;;;;;;;;;;;;;;;8.45;45.43;95047.72;5113788;28;1078;-46
2021/12/24 13:09:23;;;;;;;;;;;;;;;8.40;46.90;95048.16;5113681;28;1892;-45
2021/12/24 13:11:51;;;;;;;;;;;;;;;8.26;48.94;95046.00;5113699;28;1857;-44
2021/12/24 13:14:18;;;;;;;;;;;;;;;8.17;46.99;95041.56;5113390;28;1910;-44
2021/12/24 13:16:52;;;;;;;;;;;;;;;8.12;46.57;95034.03;5113633;28;1012;-46
2021/12/24 13:19:29;;;;;;;;;;;;;;;8.13;46.34;95038.34;5113657;28;1036;-46
2021/12/24 13:24:44;;;;;;;;;;;;;;;8.09;47.20;95033.47;5113595;28;1081;-46
2021/12/24 13:27:10;;;;;;;;;;;;;;;7.91;47.72;95033.41;5114000;28;991;-46
2021/12/24 13:29:36;;;;;;;;;;;;;;;7.76;47.35;95028.59;5114041;28;1004;-44
2021/12/24 13:32:04;;;;;;;;;;;;;;;7.87;47.26;95029.38;5113527;28;1205;-46
2021/12/24 13:34:30;;;;;;;;;;;;;;;7.97;47.14;95032.84;5113339;28;1887;-46
2021/12/24 13:37:10;;;;;;;;;;;;;;;7.97;46.78;95041.66;5113859;28;984;-45
2021/12/24 13:39:44;;;;;;;;;;;;;;;7.93;46.94;95034.97;5113749;28;1022;-45
2021/12/24 13:42:10;;;;;;;;;;;;;;;7.87;46.98;95032.88;5113546;28;1093;-44
2021/12/24 13:44:38;;;;;;;;;;;;;;;7.85;47.46;95040.16;5113320;28;1012;-46
2021/12/24 13:47:16;;;;;;;;;;;;;;;7.70;49.51;95039.84;5113645;28;1058;-45
2021/12/24 13:55:32;;;;;;;;;;;;;;;7.22;51.74;95048.78;5113426;28;1901;-46
2021/12/24 13:58:03;;;;;;;;;;;;;;;6.80;52.81;95052.59;5113397;28;1059;-44
2021/12/24 14:00:30;;;;;;;;;;;;;;;6.70;53.91;95037.66;5113909;28;972;-45
2021/12/24 14:02:58;;;;;;;;;;;;;;;6.63;53.71;95040.84;5117516;28;1031;-46
2021/12/24 14:05:25;;;;;;;;;;;;;;;6.22;54.87;95041.94;5116957;28;1038;-44
2021/12/24 14:08:06;;;;;;;;;;;;;;;5.94;54.88;95035.56;5117022;28;1040;-45
2021/12/24 14:10:32;;;;;;;;;;;;;;;5.91;54.29;95031.34;5117124;28;1015;-45
2021/12/24 14:13:05;;;;;;;;;;;;;;;5.73;56.06;95032.97;5117148;27;1165;-46
2021/12/24 14:15:42;;;;;;;;;;;;;;;5.52;57.14;95039.19;5116643;28;1905;-50
2021/12/24 14:18:29;;;;;;;;;;;;;;;5.58;55.73;95038.66;5117228;28;992;-46
2021/12/24 14:21:44;;;;;;;;;;;;;;;5.53;55.32;95034.72;5116703;28;1024;-46
2021/12/24 14:23:46;;;;;;;;;;;;;;;5.36;56.33;95041.47;5116731;28;1553;-45
2021/12/24 14:26:12;;;;;;;;;;;;;;;5.23;57.15;95033.72;5117011;28;1048;-45
2021/12/24 14:28:56;;;;;;;;;;;;;;;5.19;57.49;95038.47;5116704;28;1071;-46
2021/12/24 14:31:23;;;;;;;;;;;;;;;5.12;57.48;95041.75;5116917;28;969;-46
2021/12/24 14:33:49;;;;;;;;;;;;;;;4.96;57.54;95028.97;5116859;28;1909;-46
2021/12/24 14:36:16;;;;;;;;;;;;;;;4.87;57.72;95031.41;5116421;28;1997;-45
2021/12/24 14:38:43;;;;;;;;;;;;;;;4.73;59.15;95044.16;5116561;28;2021;-45
2021/12/24 14:41:14;;;;;;;;;;;;;;;4.48;60.15;95039.09;5116308;28;1028;-45
2021/12/24 14:43:40;;;;;;;;;;;;;;;4.55;60.08;95042.06;5116515;28;1019;-46
2021/12/24 14:46:07;;;;;;;;;;;;;;;4.59;59.39;95040.00;5116120;28;1152;-45
2021/12/24 14:48:35;;;;;;;;;;;;;;;4.32;57.79;95049.25;5116701;28;1047;-45
2021/12/24 14:51:06;;;;;;;;;;;;;;;4.21;59.88;95051.94;5116239;28;1003;-45
2021/12/24 14:53:38;;;;;;;;;;;;;;;4.16;61.30;95060.25;5116526;28;1910;-46
2021/12/24 14:56:18;;;;;;;;;;;;;;;4.33;59.80;95055.41;5116171;28;1036;-45
2021/12/24 14:58:47;;;;;;;;;;;;;;;4.42;60.32;95057.28;5116487;28;988;-45
2021/12/24 15:01:15;;;;;;;;;;;;;;;4.41;61.09;95072.31;5115893;28;1299;-45
2021/12/24 15:03:45;;;;;;;;;;;;;;;4.25;61.52;95069.22;5116225;28;1043;-45
2021/12/24 15:06:19;;;;;;;;;;;;;;;4.21;61.24;95066.03;5115821;28;971;-45
2021/12/24 15:08:46;;;;;;;;;;;;;;;3.92;61.09;95063.88;5116225;28;999;-46
2021/12/24 15:11:16;;;;;;;;;;;;;;;3.86;61.93;95072.31;5115873;28;1157;-46
2021/12/24 15:13:45;;;;;;;;;;;;;;;3.90;62.14;95072.94;5115862;28;1934;-46
2021/12/24 15:16:12;;;;;;;;;;;;;;;3.87;62.40;95073.16;5115927;28;1071;-46
2021/12/24 15:18:38;;;;;;;;;;;;;;;3.56;61.84;95059.72;5115897;28;976;-45
2021/12/24 15:21:05;;;;;;;;;;;;;;;3.23;62.54;95064.03;5115558;28;1050;-45
2021/12/24 15:23:31;;;;;;;;;;;;;;;3.24;63.29;95065.72;5115998;28;1052;-45
2021/12/24 15:25:58;;;;;;;;;;;;;;;3.27;64.23;95057.56;5115666;27;973;-45
2021/12/24 15:28:24;;;;;;;;;;;;;;;3.00;64.14;95062.31;5115732;28;1052;-46
2021/12/24 15:30:52;;;;;;;;;;;;;;;2.90;64.68;95070.97;5115550;28;972;-45
2021/12/24 15:33:19;;;;;;;;;;;;;;;2.95;64.38;95073.25;5115464;28;1031;-45
2021/12/24 15:35:46;;;;;;;;;;;;;;;2.64;64.32;95067.63;5115423;28;1906;-45
2021/12/24 15:38:12;;;;;;;;;;;;;;;2.58;64.81;95064.59;5115623;28;998;-46